Terminal Aerodrome Forecast
Issued by NWS

Home | Current Version | Previous Version | Text Only | Print | Product List | Glossary On
Versions: 1 2 3 4 5 6 7 8 9 10 11 12 13 14 15 16 17 18 19 20 21 22 23 24 25 26 27 28 29 30 31 32 33 34
000
FTPA31 PHFO 281154 AAA
TAFMDY
TAF AMD
PMDY 281154Z 2812/2912 15013KT P6SM SCT015 BKN035
      TEMPO 2812/2814 BKN015
     FM281500 18014KT P6SM SCT020 SCT040
     FM282200 20017KT P6SM SCT020 SCT040
     FM290500 23019KT P6SM VCSH SCT020 BKN035
     FM290900 26019KT 5SM SHRA BR SCT010 BKN020=

USA.gov is the U.S. government's official web portal to all federal, state and local government web resources and services.